createdAt,value
2023-04-09T00:03:49.671Z,23.75
2023-04-09T00:08:51.947Z,24.17
2023-04-09T00:13:54.234Z,24.48
2023-04-09T00:18:56.679Z,25.05
2023-04-09T00:23:58.757Z,22.00
2023-04-09T00:29:01.070Z,26.38
2023-04-09T00:34:05.092Z,25.48
2023-04-09T00:39:10.767Z,29.05
2023-04-09T00:44:13.341Z,30.35
2023-04-09T00:54:53.216Z,30.67
2023-04-09T00:59:55.313Z,30.48
2023-04-09T01:04:57.471Z,27.42
2023-04-09T01:10:05.214Z,25.38
2023-04-09T01:15:18.366Z,21.35
2023-04-09T01:20:37.426Z,25.23
2023-04-09T01:25:39.411Z,20.90
2023-04-09T01:30:47.358Z,24.35
2023-04-09T01:35:50.987Z,25.00
2023-04-09T01:40:55.652Z,23.83
2023-04-09T01:46:00.654Z,23.90
2023-04-09T01:51:02.533Z,28.85
2023-04-09T01:56:04.545Z,21.60
2023-04-09T02:01:09.949Z,22.42
2023-04-09T02:06:21.205Z,23.25
2023-04-09T02:11:24.775Z,23.85
2023-04-09T02:16:27.800Z,21.40
2023-04-09T02:21:29.810Z,25.98
2023-04-09T02:26:31.687Z,27.27
2023-04-09T02:31:33.730Z,23.25
2023-04-09T02:36:35.485Z,24.48
2023-04-09T02:41:37.284Z,25.25
2023-04-09T02:46:41.620Z,31.27
2023-04-09T02:51:43.332Z,23.85
2023-04-09T02:56:44.996Z,26.20
2023-04-09T03:01:46.654Z,23.05
2023-04-09T03:06:48.373Z,23.88
2023-04-09T03:11:49.995Z,26.92
2023-04-09T03:16:51.679Z,25.38
2023-04-09T03:21:53.562Z,27.63
2023-04-09T03:26:59.679Z,25.85
2023-04-09T03:32:01.406Z,28.70
2023-04-09T03:37:03.259Z,32.60
2023-04-09T03:42:06.643Z,31.83
2023-04-09T03:47:18.112Z,32.95
2023-04-09T03:52:19.736Z,29.90
2023-04-09T03:57:28.730Z,29.60
2023-04-09T04:02:34.017Z,35.25
2023-04-09T04:07:39.518Z,30.13
2023-04-09T04:12:46.054Z,34.90
2023-04-09T04:17:57.030Z,40.92
2023-04-09T04:23:19.230Z,61.72
2023-04-09T04:28:37.869Z,41.58
2023-04-09T04:33:41.934Z,41.63
2023-04-09T04:38:48.191Z,34.20
2023-04-09T04:44:16.171Z,39.90
2023-04-09T04:49:18.340Z,54.55
2023-04-09T04:54:22.626Z,50.35
2023-04-09T04:59:28.950Z,48.28
2023-04-09T05:04:34.750Z,48.40
2023-04-09T05:09:37.260Z,53.42
2023-04-09T05:14:42.230Z,69.47
2023-04-09T05:19:44.169Z,37.92
2023-04-09T05:24:47.858Z,35.00
2023-04-09T05:29:51.196Z,33.80
2023-04-09T05:34:53.244Z,33.70
2023-04-09T05:39:56.907Z,31.15
2023-04-09T05:44:59.539Z,35.50
2023-04-09T05:50:01.815Z,30.80
2023-04-09T05:55:03.817Z,35.15
2023-04-09T06:00:18.275Z,35.05
2023-04-09T06:05:22.116Z,35.88
2023-04-09T06:10:24.361Z,35.53
2023-04-09T06:15:26.317Z,37.95
2023-04-09T06:20:29.358Z,47.00
2023-04-09T06:25:31.031Z,53.17
2023-04-09T06:30:32.782Z,53.17
2023-04-09T06:35:34.586Z,49.42
2023-04-09T06:40:38.725Z,54.45
2023-04-09T06:45:41.119Z,58.58
2023-04-09T06:50:43.168Z,55.85
2023-04-09T06:55:44.804Z,57.78
2023-04-09T07:00:46.695Z,53.70
2023-04-09T07:05:48.703Z,56.00
2023-04-09T07:10:50.475Z,44.65
2023-04-09T07:15:52.154Z,51.30
2023-04-09T07:20:53.865Z,44.42
2023-04-09T07:25:55.757Z,43.17
2023-04-09T07:30:57.656Z,45.35
2023-04-09T07:35:59.336Z,38.85
2023-04-09T07:41:01.430Z,38.38
2023-04-09T07:46:03.252Z,42.70
2023-04-09T07:51:06.140Z,43.10
2023-04-09T07:56:08.106Z,44.22
2023-04-09T08:01:09.711Z,35.50
2023-04-09T08:06:11.505Z,42.60
2023-04-09T08:11:13.195Z,43.13
2023-04-09T08:16:15.544Z,48.65
2023-04-09T08:21:17.940Z,48.35
2023-04-09T08:26:19.695Z,45.65
2023-04-09T08:31:21.549Z,44.63
2023-04-09T08:36:23.465Z,38.75
2023-04-09T08:41:26.870Z,40.83
2023-04-09T08:46:28.739Z,38.85
2023-04-09T08:51:31.512Z,38.53
2023-04-09T08:56:33.454Z,31.48
2023-04-09T09:01:35.138Z,33.58
2023-04-09T09:06:41.499Z,35.42
2023-04-09T09:11:48.599Z,31.08
2023-04-09T09:16:56.773Z,31.65
2023-04-09T09:22:03.451Z,31.13
2023-04-09T09:27:05.362Z,35.83
2023-04-09T09:32:13.526Z,34.53
2023-04-09T09:37:28.561Z,34.45
2023-04-09T09:42:30.306Z,34.45
2023-04-09T09:47:32.550Z,33.20
2023-04-09T09:52:34.225Z,31.70
2023-04-09T09:57:42.232Z,32.05
2023-04-09T10:02:53.408Z,37.25
2023-04-09T10:07:57.860Z,30.67
2023-04-09T10:12:59.835Z,35.75
2023-04-09T10:18:01.986Z,41.47
2023-04-09T10:23:09.595Z,39.97
2023-04-09T10:28:18.664Z,37.03
2023-04-09T10:33:26.929Z,35.65
2023-04-09T10:38:38.346Z,27.70
2023-04-09T10:43:40.452Z,28.90
2023-04-09T10:48:43.838Z,30.92
2023-04-09T10:53:45.768Z,33.42
2023-04-09T10:58:47.409Z,37.88
2023-04-09T11:04:10.589Z,33.13
2023-04-09T11:09:12.491Z,29.50
2023-04-09T11:14:20.442Z,35.17
2023-04-09T11:19:22.125Z,27.77
2023-04-09T11:24:23.850Z,29.20
2023-04-09T11:29:25.468Z,30.25
2023-04-09T11:34:30.570Z,31.73
2023-04-09T11:39:32.143Z,25.40
2023-04-09T11:44:33.814Z,24.50
2023-04-09T11:49:36.036Z,26.88
2023-04-09T11:54:37.850Z,29.40
2023-04-09T11:59:39.743Z,29.63
2023-04-09T12:04:50.678Z,27.63
2023-04-09T12:09:52.386Z,26.55
2023-04-09T12:14:56.951Z,28.77
2023-04-09T12:19:58.524Z,27.30
2023-04-09T12:25:00.494Z,25.70
2023-04-09T12:30:02.115Z,24.98
2023-04-09T12:35:04.346Z,26.30
2023-04-09T12:40:07.126Z,24.13
2023-04-09T12:45:15.609Z,27.83
2023-04-09T12:50:17.354Z,28.50
2023-04-09T12:55:19.029Z,25.05
2023-04-09T13:00:20.723Z,28.13
2023-04-09T13:05:22.367Z,31.17
2023-04-09T13:10:25.462Z,30.33
2023-04-09T13:15:27.419Z,30.02
2023-04-09T13:20:29.628Z,37.63
2023-04-09T13:25:31.313Z,35.40
2023-04-09T13:30:32.989Z,42.58
2023-04-09T13:35:34.728Z,34.15
2023-04-09T13:40:36.584Z,19.33
2023-04-09T13:45:38.238Z,23.33
2023-04-09T13:50:39.853Z,22.58
2023-04-09T13:55:41.788Z,20.95
2023-04-09T14:00:43.533Z,20.33
2023-04-09T14:05:45.558Z,20.75
2023-04-09T14:10:47.301Z,20.10
2023-04-09T14:15:50.047Z,16.98
2023-04-09T14:20:51.914Z,21.90
2023-04-09T14:25:53.759Z,18.67
2023-04-09T14:30:55.661Z,18.13
2023-04-09T14:35:58.729Z,18.15
2023-04-09T14:41:00.852Z,16.55
2023-04-09T14:46:04.017Z,17.98
2023-04-09T14:51:06.799Z,16.55
2023-04-09T14:56:08.605Z,16.95
2023-04-09T15:01:10.372Z,16.60
2023-04-09T15:06:12.441Z,16.48
2023-04-09T15:11:18.072Z,14.82
2023-04-09T15:16:28.031Z,15.18
2023-04-09T15:21:31.726Z,10.43
2023-04-09T15:26:34.520Z,8.90
2023-04-09T15:31:36.427Z,12.18
2023-04-09T15:36:38.252Z,10.68
2023-04-09T15:41:39.860Z,11.18
2023-04-09T15:46:41.569Z,13.50
2023-04-09T15:51:43.249Z,12.65
2023-04-09T15:56:45.113Z,14.23
2023-04-09T16:01:46.821Z,9.27
2023-04-09T16:06:48.441Z,12.82
2023-04-09T16:11:51.096Z,13.50
2023-04-09T16:16:53.790Z,13.30
2023-04-09T16:21:55.739Z,13.02
2023-04-09T16:26:57.823Z,11.23
2023-04-09T16:32:00.049Z,11.20
2023-04-09T16:37:01.971Z,11.05
2023-04-09T16:42:03.641Z,10.35
2023-04-09T16:47:05.336Z,9.98
2023-04-09T16:52:07.161Z,10.27
2023-04-09T16:57:08.943Z,11.32
2023-04-09T17:02:10.702Z,10.70
2023-04-09T17:07:12.525Z,10.52
2023-04-09T17:12:14.236Z,11.05
2023-04-09T17:17:16.150Z,10.10
2023-04-09T17:22:17.951Z,15.93
2023-04-09T17:27:19.784Z,17.35
2023-04-09T17:32:21.503Z,15.00
2023-04-09T17:37:23.188Z,14.23
2023-04-09T17:42:24.824Z,16.02
2023-04-09T17:47:26.513Z,16.95
2023-04-09T17:52:29.214Z,16.15
2023-04-09T17:57:30.909Z,34.55
2023-04-09T18:02:33.008Z,103.70
2023-04-09T18:07:34.951Z,66.43
2023-04-09T18:12:36.569Z,56.58
2023-04-09T18:17:38.318Z,47.78
2023-04-09T18:22:39.956Z,27.63
2023-04-09T18:27:41.545Z,20.60
2023-04-09T18:32:43.986Z,16.77
2023-04-09T18:37:45.859Z,15.15
2023-04-09T18:42:54.144Z,15.68
2023-04-09T18:47:55.820Z,16.98
2023-04-09T18:52:57.454Z,21.25
2023-04-09T18:57:59.208Z,13.95
2023-04-09T19:03:01.253Z,16.85
2023-04-09T19:08:05.301Z,15.93
2023-04-09T19:13:06.995Z,19.75
2023-04-09T19:18:08.598Z,19.35
2023-04-09T19:23:10.312Z,22.40
2023-04-09T19:28:12.101Z,23.92
2023-04-09T19:33:13.763Z,22.73
2023-04-09T19:38:16.319Z,21.08
2023-04-09T19:43:18.033Z,20.95
2023-04-09T19:48:19.638Z,31.85
2023-04-09T19:53:22.859Z,35.90
2023-04-09T19:58:24.586Z,26.95
2023-04-09T20:03:26.350Z,41.20
2023-04-09T20:08:28.242Z,38.45
2023-04-09T20:13:29.999Z,37.75
2023-04-09T20:18:32.014Z,31.70
2023-04-09T20:23:33.661Z,28.48
2023-04-09T20:28:35.870Z,26.17
2023-04-09T20:33:37.472Z,33.92
2023-04-09T20:38:39.051Z,34.08
2023-04-09T20:43:40.762Z,35.88
2023-04-09T20:48:43.196Z,36.10
2023-04-09T20:53:45.436Z,34.30
2023-04-09T20:58:47.289Z,31.50
2023-04-09T21:03:49.150Z,28.45
2023-04-09T21:08:51.745Z,33.30
2023-04-09T21:13:55.256Z,27.70
2023-04-09T21:18:57.242Z,28.05
2023-04-09T21:23:58.936Z,29.52
2023-04-09T21:29:01.573Z,32.20
2023-04-09T21:34:03.256Z,33.25
2023-04-09T21:39:04.967Z,30.73
2023-04-09T21:44:08.631Z,24.00
2023-04-09T21:49:10.481Z,26.73
2023-04-09T21:54:12.095Z,27.63
2023-04-09T21:59:13.681Z,24.38
2023-04-09T22:04:15.638Z,23.92
2023-04-09T22:09:17.242Z,25.55
2023-04-09T22:14:19.832Z,26.33
2023-04-09T22:19:21.728Z,25.15
2023-04-09T22:24:30.358Z,26.08
2023-04-09T22:29:32.820Z,22.60
2023-04-09T22:34:34.662Z,25.00
2023-04-09T22:39:36.502Z,20.20
2023-04-09T22:44:39.673Z,21.35
2023-04-09T22:49:41.318Z,21.70
2023-04-09T22:54:43.270Z,27.67
2023-04-09T22:59:44.887Z,19.23
2023-04-09T23:04:46.702Z,22.67
2023-04-09T23:09:48.482Z,26.55
2023-04-09T23:14:50.167Z,24.55
2023-04-09T23:19:54.598Z,25.58
2023-04-09T23:24:56.692Z,29.80
2023-04-09T23:29:58.383Z,22.77
2023-04-09T23:35:01.239Z,22.55
2023-04-09T23:40:02.936Z,27.25
2023-04-09T23:45:05.800Z,27.92
2023-04-09T23:50:08.408Z,25.88
2023-04-09T23:55:10.755Z,25.55
